createdAt,value
2023-12-11T00:02:47.783Z,0.63
2023-12-11T00:05:52.099Z,1.03
2023-12-11T00:08:54.677Z,0.70
2023-12-11T00:11:58.501Z,0.50
2023-12-11T00:15:01.213Z,0.63
2023-12-11T00:18:03.532Z,0.50
2023-12-11T00:21:05.805Z,0.50
2023-12-11T00:24:08.044Z,1.30
2023-12-11T00:27:10.123Z,0.60
2023-12-11T00:30:13.289Z,0.60
2023-12-11T00:33:16.247Z,0.60
2023-12-11T00:36:18.807Z,0.50
2023-12-11T00:39:20.893Z,0.60
2023-12-11T00:42:22.957Z,0.77
2023-12-11T00:45:25.129Z,0.97
2023-12-11T00:48:27.304Z,0.60
2023-12-11T00:51:29.561Z,0.60
2023-12-11T00:54:31.847Z,0.97
2023-12-11T00:57:34.134Z,0.70
2023-12-11T01:00:36.333Z,0.73
2023-12-11T01:03:39.582Z,0.33
2023-12-11T01:06:43.358Z,0.40
2023-12-11T01:09:45.460Z,0.60
2023-12-11T01:12:48.280Z,0.50
2023-12-11T01:15:50.435Z,0.60
2023-12-11T01:18:52.854Z,0.73
2023-12-11T01:21:55.081Z,0.60
2023-12-11T01:24:57.392Z,0.60
2023-12-11T01:27:59.779Z,0.63
2023-12-11T01:31:02.151Z,0.63
2023-12-11T01:34:04.312Z,0.60
2023-12-11T01:37:06.520Z,0.80
2023-12-11T01:40:09.998Z,0.70
2023-12-11T01:43:18.433Z,0.90
2023-12-11T01:46:23.360Z,0.70
2023-12-11T01:49:26.209Z,0.70
2023-12-11T01:52:29.558Z,0.80
2023-12-11T01:55:33.664Z,0.70
2023-12-11T01:58:36.039Z,0.60
2023-12-11T02:01:38.724Z,0.40
2023-12-11T02:04:41.021Z,0.50
2023-12-11T02:07:43.308Z,1.07
2023-12-11T02:10:45.903Z,1.10
2023-12-11T02:13:48.597Z,0.97
2023-12-11T02:16:51.437Z,0.60
2023-12-11T02:19:54.620Z,0.73
2023-12-11T02:22:59.188Z,0.50
2023-12-11T02:26:15.717Z,0.60
2023-12-11T02:29:17.720Z,0.80
2023-12-11T02:32:19.835Z,0.83
2023-12-11T02:35:21.914Z,0.60
2023-12-11T02:38:24.076Z,0.60
2023-12-11T02:41:26.566Z,0.50
2023-12-11T02:44:28.782Z,0.80
2023-12-11T02:47:31.098Z,0.60
2023-12-11T02:50:34.295Z,0.60
2023-12-11T02:53:36.325Z,0.60
2023-12-11T02:56:41.643Z,0.60
2023-12-11T02:59:43.656Z,0.57
2023-12-11T03:02:45.718Z,0.50
2023-12-11T03:05:47.939Z,0.50
2023-12-11T03:08:50.971Z,0.80
2023-12-11T03:11:55.406Z,0.67
2023-12-11T03:14:57.646Z,0.60
2023-12-11T03:18:00.561Z,0.50
2023-12-11T03:21:02.759Z,0.67
2023-12-11T03:24:04.913Z,0.50
2023-12-11T03:27:07.304Z,0.53
2023-12-11T03:30:10.156Z,0.60
2023-12-11T03:33:12.336Z,0.67
2023-12-11T03:36:16.131Z,0.80
2023-12-11T03:39:18.240Z,0.67
2023-12-11T03:42:20.363Z,0.50
2023-12-11T03:45:22.585Z,0.57
2023-12-11T03:48:24.933Z,0.70
2023-12-11T03:51:27.761Z,0.80
2023-12-11T03:54:29.816Z,0.93
2023-12-11T03:57:32.097Z,0.60
2023-12-11T04:00:38.346Z,0.60
2023-12-11T04:03:43.308Z,0.70
2023-12-11T04:06:45.843Z,0.90
2023-12-11T04:09:48.079Z,0.77
2023-12-11T04:12:50.213Z,0.60
2023-12-11T04:15:52.359Z,0.90
2023-12-11T04:18:56.719Z,0.80
2023-12-11T04:22:01.001Z,1.00
2023-12-11T04:25:03.767Z,0.77
2023-12-11T04:28:06.407Z,0.40
2023-12-11T04:31:08.504Z,0.60
2023-12-11T04:34:11.154Z,0.80
2023-12-11T04:37:13.613Z,0.80
2023-12-11T04:40:15.901Z,0.50
2023-12-11T04:44:25.320Z,1.00
2023-12-11T04:47:27.556Z,0.73
2023-12-11T04:50:29.680Z,0.60
2023-12-11T04:53:31.728Z,0.40
2023-12-11T04:56:33.716Z,0.63
2023-12-11T04:59:35.863Z,0.50
2023-12-11T05:02:37.982Z,4.40
2023-12-11T05:05:40.103Z,2.03
2023-12-11T05:08:42.314Z,0.60
2023-12-11T05:11:46.339Z,0.60
2023-12-11T05:14:48.398Z,1.30
2023-12-11T05:17:50.916Z,2.23
2023-12-11T05:20:52.933Z,1.90
2023-12-11T05:23:55.954Z,1.27
2023-12-11T05:26:58.032Z,1.23
2023-12-11T05:30:00.832Z,0.90
2023-12-11T05:33:03.067Z,0.93
2023-12-11T05:36:06.073Z,0.83
2023-12-11T05:39:08.701Z,1.23
2023-12-11T05:42:10.784Z,2.40
2023-12-11T05:45:12.928Z,0.50
2023-12-11T05:48:16.001Z,0.77
2023-12-11T05:51:18.185Z,0.80
2023-12-11T05:54:20.272Z,0.80
2023-12-11T05:57:22.564Z,1.10
2023-12-11T06:00:24.861Z,0.90
2023-12-11T06:03:27.003Z,0.70
2023-12-11T06:06:31.716Z,0.70
2023-12-11T06:09:34.087Z,1.20
2023-12-11T06:12:37.965Z,1.00
2023-12-11T06:15:40.075Z,1.00
2023-12-11T06:18:44.158Z,1.30
2023-12-11T06:21:46.831Z,1.00
2023-12-11T06:24:49.064Z,1.10
2023-12-11T06:27:52.967Z,1.10
2023-12-11T06:30:55.491Z,1.07
2023-12-11T06:33:58.028Z,3.70
2023-12-11T06:37:00.268Z,2.93
2023-12-11T06:40:04.878Z,1.60
2023-12-11T06:43:07.118Z,1.93
2023-12-11T06:46:09.231Z,1.37
2023-12-11T06:49:11.915Z,1.70
2023-12-11T06:52:14.873Z,1.63
2023-12-11T06:55:17.356Z,0.60
2023-12-11T06:58:19.392Z,1.13
2023-12-11T07:01:35.283Z,3.70
2023-12-11T07:04:38.408Z,3.33
2023-12-11T07:07:40.655Z,1.80
2023-12-11T07:10:42.832Z,1.80
2023-12-11T07:13:45.133Z,1.77
2023-12-11T07:16:47.208Z,0.77
2023-12-11T07:19:50.169Z,1.33
2023-12-11T07:22:52.303Z,1.63
2023-12-11T07:25:54.637Z,2.83
2023-12-11T07:28:56.963Z,3.00
2023-12-11T07:31:59.841Z,1.80
2023-12-11T07:35:02.265Z,2.47
2023-12-11T07:38:04.908Z,2.93
2023-12-11T07:41:08.083Z,2.20
2023-12-11T07:44:10.355Z,2.97
2023-12-11T07:47:12.518Z,2.70
2023-12-11T07:50:14.654Z,2.27
2023-12-11T07:53:16.734Z,1.30
2023-12-11T07:56:21.180Z,4.63
2023-12-11T07:59:23.272Z,3.47
2023-12-11T08:02:25.591Z,2.40
2023-12-11T08:05:27.788Z,1.30
2023-12-11T08:08:30.457Z,1.73
2023-12-11T08:11:32.423Z,1.80
2023-12-11T08:14:37.957Z,2.60
2023-12-11T08:17:41.326Z,1.80
2023-12-11T08:20:43.515Z,1.40
2023-12-11T08:23:46.156Z,2.23
2023-12-11T08:26:49.221Z,2.03
2023-12-11T08:29:51.274Z,1.50
2023-12-11T08:32:54.105Z,1.53
2023-12-11T08:35:56.301Z,0.80
2023-12-11T08:38:58.380Z,2.60
2023-12-11T08:42:00.384Z,1.70
2023-12-11T08:45:02.548Z,1.30
2023-12-11T08:48:04.983Z,1.23
2023-12-11T08:51:07.262Z,1.50
2023-12-11T08:54:09.845Z,1.10
2023-12-11T08:57:11.970Z,0.90
2023-12-11T09:00:14.714Z,0.60
2023-12-11T09:03:16.956Z,0.90
2023-12-11T09:06:19.172Z,0.77
2023-12-11T09:09:21.280Z,0.83
2023-12-11T09:12:31.129Z,0.70
2023-12-11T09:15:35.957Z,1.90
2023-12-11T09:18:38.240Z,0.77
2023-12-11T09:21:43.088Z,0.60
2023-12-11T09:24:45.170Z,0.70
2023-12-11T09:27:48.978Z,0.40
2023-12-11T09:30:51.496Z,0.50
2023-12-11T09:33:54.161Z,0.53
2023-12-11T09:36:56.755Z,0.70
2023-12-11T09:39:58.949Z,0.60
2023-12-11T09:43:03.714Z,0.57
2023-12-11T09:46:10.277Z,0.40
2023-12-11T09:49:12.645Z,0.60
2023-12-11T09:52:15.223Z,0.50
2023-12-11T09:55:17.433Z,0.60
2023-12-11T09:58:22.785Z,0.87
2023-12-11T10:01:25.325Z,1.10
2023-12-11T10:04:27.539Z,1.20
2023-12-11T10:07:29.912Z,0.80
2023-12-11T10:10:35.233Z,0.70
2023-12-11T10:13:37.635Z,0.80
2023-12-11T10:16:39.705Z,1.10
2023-12-11T10:19:42.090Z,2.70
2023-12-11T10:22:44.465Z,2.27
2023-12-11T10:25:48.578Z,1.77
2023-12-11T10:28:51.268Z,1.47
2023-12-11T10:32:00.839Z,0.97
2023-12-11T10:35:03.291Z,1.57
2023-12-11T10:38:05.470Z,1.20
2023-12-11T10:41:08.115Z,1.60
2023-12-11T10:44:17.238Z,1.53
2023-12-11T10:47:24.384Z,2.07
2023-12-11T10:50:26.820Z,6.03
2023-12-11T10:53:29.210Z,4.83
2023-12-11T10:56:31.591Z,2.40
2023-12-11T10:59:35.177Z,2.27
2023-12-11T11:02:38.122Z,1.90
2023-12-11T11:05:40.610Z,3.27
2023-12-11T11:08:56.438Z,1.83
2023-12-11T11:12:05.674Z,2.10
2023-12-11T11:15:10.587Z,3.80
2023-12-11T11:18:12.987Z,3.40
2023-12-11T11:21:15.198Z,2.77
2023-12-11T11:24:30.280Z,2.03
2023-12-11T11:27:43.862Z,2.10
2023-12-11T11:30:46.354Z,1.60
2023-12-11T11:33:53.848Z,1.90
2023-12-11T11:36:56.679Z,1.97
2023-12-11T11:40:01.970Z,1.73
2023-12-11T11:43:06.847Z,2.03
2023-12-11T11:46:08.979Z,2.07
2023-12-11T11:49:11.108Z,2.20
2023-12-11T11:52:14.084Z,2.40
2023-12-11T11:55:23.151Z,2.70
2023-12-11T11:58:25.432Z,2.93
2023-12-11T12:01:27.655Z,2.80
2023-12-11T12:04:31.541Z,2.10
2023-12-11T12:07:34.903Z,3.23
2023-12-11T12:10:37.012Z,6.37
2023-12-11T12:13:39.361Z,6.27
2023-12-11T12:16:41.539Z,17.10
2023-12-11T12:19:43.693Z,9.60
2023-12-11T12:23:05.171Z,4.03
2023-12-11T12:26:07.553Z,2.30
2023-12-11T12:29:11.180Z,3.00
2023-12-11T12:32:15.673Z,1.00
2023-12-11T12:35:19.258Z,1.60
2023-12-11T12:38:22.911Z,1.47
2023-12-11T12:41:24.950Z,1.27
2023-12-11T12:44:27.104Z,1.53
2023-12-11T12:47:29.478Z,1.00
2023-12-11T12:50:32.431Z,0.73
2023-12-11T12:53:57.167Z,0.60
2023-12-11T12:57:02.674Z,1.33
2023-12-11T13:00:07.071Z,1.80
2023-12-11T13:03:09.538Z,1.50
2023-12-11T13:06:27.798Z,1.80
2023-12-11T13:09:31.642Z,1.20
2023-12-11T13:12:33.675Z,0.90
2023-12-11T13:15:37.168Z,0.80
2023-12-11T13:18:39.272Z,0.93
2023-12-11T13:21:43.151Z,0.60
2023-12-11T13:24:45.648Z,1.67
2023-12-11T13:27:48.497Z,2.10
2023-12-11T13:30:50.625Z,1.70
2023-12-11T13:33:53.339Z,2.17
2023-12-11T13:36:55.572Z,2.07
2023-12-11T13:39:58.033Z,2.00
2023-12-11T13:43:00.109Z,1.40
2023-12-11T13:46:04.030Z,1.13
2023-12-11T13:49:06.210Z,0.93
2023-12-11T13:52:08.410Z,0.90
2023-12-11T13:55:10.519Z,0.30
2023-12-11T13:58:13.463Z,0.40
2023-12-11T14:01:15.506Z,0.43
2023-12-11T14:04:17.744Z,0.80
2023-12-11T14:07:20.417Z,1.17
2023-12-11T14:10:22.677Z,1.00
2023-12-11T14:13:24.686Z,0.77
2023-12-11T14:16:27.447Z,0.80
2023-12-11T14:19:31.937Z,0.70
2023-12-11T14:22:36.084Z,1.10
2023-12-11T14:25:39.430Z,1.30
2023-12-11T14:28:42.129Z,0.80
2023-12-11T14:31:46.391Z,2.40
2023-12-11T14:34:48.740Z,1.50
2023-12-11T14:37:51.366Z,1.37
2023-12-11T14:40:53.550Z,0.60
2023-12-11T14:43:55.514Z,0.70
2023-12-11T14:46:57.551Z,0.70
2023-12-11T14:49:59.810Z,2.03
2023-12-11T14:53:02.056Z,1.73
2023-12-11T14:56:04.403Z,1.90
2023-12-11T14:59:06.740Z,1.87
2023-12-11T15:02:10.783Z,1.40
2023-12-11T15:05:13.025Z,1.80
2023-12-11T15:08:15.128Z,0.80
2023-12-11T15:11:18.668Z,1.07
2023-12-11T15:14:21.147Z,3.10
2023-12-11T15:17:23.807Z,0.83
2023-12-11T15:20:26.121Z,1.00
2023-12-11T15:23:28.998Z,1.13
2023-12-11T15:26:31.104Z,1.10
2023-12-11T15:29:34.113Z,2.33
2023-12-11T15:32:36.169Z,3.10
2023-12-11T15:35:38.558Z,2.30
2023-12-11T15:38:40.580Z,1.70
2023-12-11T15:41:42.705Z,1.93
2023-12-11T15:44:45.542Z,2.00
2023-12-11T15:48:00.823Z,1.50
2023-12-11T15:51:16.892Z,3.13
2023-12-11T15:54:19.642Z,2.20
2023-12-11T15:57:21.680Z,1.50
2023-12-11T16:00:23.780Z,4.40
2023-12-11T16:03:25.815Z,2.10
2023-12-11T16:06:29.656Z,2.80
2023-12-11T16:09:31.763Z,1.53
2023-12-11T16:12:34.078Z,2.83
2023-12-11T16:15:36.056Z,1.50
2023-12-11T16:18:41.565Z,1.63
2023-12-11T16:21:43.735Z,2.40
2023-12-11T16:24:46.893Z,1.77
2023-12-11T16:27:48.980Z,1.90
2023-12-11T16:30:51.679Z,1.47
2023-12-11T16:33:53.781Z,0.97
2023-12-11T16:36:56.078Z,1.40
2023-12-11T16:39:58.136Z,1.53
2023-12-11T16:43:03.107Z,1.40
2023-12-11T16:46:05.423Z,1.77
2023-12-11T16:49:07.587Z,1.27
2023-12-11T16:52:09.600Z,1.20
2023-12-11T16:55:11.773Z,0.80
2023-12-11T16:58:13.894Z,1.37
2023-12-11T17:01:16.492Z,1.57
2023-12-11T17:04:18.754Z,1.37
2023-12-11T17:07:21.011Z,1.60
2023-12-11T17:10:23.156Z,1.10
2023-12-11T17:13:25.473Z,1.00
2023-12-11T17:16:27.488Z,0.80
2023-12-11T17:19:29.692Z,0.70
2023-12-11T17:22:32.351Z,1.10
2023-12-11T17:25:34.913Z,1.63
2023-12-11T17:28:38.833Z,1.77
2023-12-11T17:31:41.064Z,3.10
2023-12-11T17:34:43.368Z,2.47
2023-12-11T17:37:45.932Z,2.07
2023-12-11T17:40:48.119Z,2.27
2023-12-11T17:43:50.202Z,1.90
2023-12-11T17:46:52.258Z,2.20
2023-12-11T17:49:54.301Z,3.60
2023-12-11T17:52:56.460Z,2.70
2023-12-11T17:55:59.214Z,2.17
2023-12-11T17:59:01.284Z,1.97
2023-12-11T18:02:03.553Z,2.93
2023-12-11T18:05:06.389Z,3.17
2023-12-11T18:08:08.512Z,2.50
2023-12-11T18:11:10.963Z,2.30
2023-12-11T18:14:13.106Z,2.20
2023-12-11T18:17:15.107Z,2.97
2023-12-11T18:20:17.358Z,2.57
2023-12-11T18:23:19.518Z,1.30
2023-12-11T18:26:22.032Z,1.63
2023-12-11T18:29:26.495Z,1.70
2023-12-11T18:32:30.132Z,2.30
2023-12-11T18:35:32.399Z,1.17
2023-12-11T18:38:34.678Z,0.83
2023-12-11T18:41:37.305Z,1.50
2023-12-11T18:44:41.031Z,1.60
2023-12-11T18:47:43.048Z,1.50
2023-12-11T18:50:45.670Z,3.40
2023-12-11T18:53:47.668Z,2.50
2023-12-11T18:56:50.043Z,2.60
2023-12-11T18:59:52.057Z,4.27
2023-12-11T19:02:55.231Z,4.03
2023-12-11T19:05:57.310Z,5.50
2023-12-11T19:08:59.585Z,2.27
2023-12-11T19:12:01.959Z,1.97
2023-12-11T19:15:04.256Z,1.87
2023-12-11T19:18:07.559Z,1.33
2023-12-11T19:21:09.779Z,1.50
2023-12-11T19:24:13.253Z,1.00
2023-12-11T19:27:16.336Z,1.40
2023-12-11T19:30:18.960Z,1.07
2023-12-11T19:33:22.550Z,0.93
2023-12-11T19:36:25.285Z,1.47
2023-12-11T19:39:27.382Z,1.27
2023-12-11T19:42:29.472Z,1.60
2023-12-11T19:45:34.370Z,4.17
2023-12-11T19:48:37.859Z,2.30
2023-12-11T19:51:40.072Z,1.63
2023-12-11T19:54:42.153Z,4.40
2023-12-11T19:57:44.315Z,2.47
2023-12-11T20:00:46.435Z,2.07
2023-12-11T20:03:48.592Z,1.40
2023-12-11T20:06:50.711Z,1.00
2023-12-11T20:09:53.553Z,1.00
2023-12-11T20:12:55.688Z,1.07
2023-12-11T20:15:58.201Z,0.90
2023-12-11T20:19:00.412Z,1.40
2023-12-11T20:22:02.604Z,1.07
2023-12-11T20:25:05.035Z,1.10
2023-12-11T20:28:07.218Z,1.10
2023-12-11T20:31:19.485Z,1.20
2023-12-11T20:34:21.650Z,2.10
2023-12-11T20:37:23.804Z,2.17
2023-12-11T20:40:26.103Z,1.80
2023-12-11T20:43:28.189Z,1.73
2023-12-11T20:46:33.163Z,1.50
2023-12-11T20:49:36.038Z,1.70
2023-12-11T20:52:38.651Z,1.43
2023-12-11T20:55:42.572Z,2.07
2023-12-11T20:58:44.656Z,6.73
2023-12-11T21:01:47.346Z,5.57
2023-12-11T21:04:49.531Z,7.83
2023-12-11T21:07:52.045Z,8.43
2023-12-11T21:10:54.164Z,6.57
2023-12-11T21:13:56.440Z,3.97
2023-12-11T21:16:58.445Z,3.17
2023-12-11T21:20:00.668Z,2.00
2023-12-11T21:23:03.010Z,1.17
2023-12-11T21:26:07.142Z,1.10
2023-12-11T21:29:10.314Z,1.13
2023-12-11T21:32:12.304Z,1.60
2023-12-11T21:35:15.965Z,1.10
2023-12-11T21:38:18.033Z,1.30
2023-12-11T21:41:20.989Z,1.70
2023-12-11T21:44:23.017Z,2.00
2023-12-11T21:47:25.099Z,1.47
2023-12-11T21:50:27.623Z,1.63
2023-12-11T21:53:29.829Z,2.40
2023-12-11T21:56:31.982Z,3.50
2023-12-11T21:59:39.723Z,3.13
2023-12-11T22:02:47.225Z,3.17
2023-12-11T22:05:49.473Z,2.90
2023-12-11T22:08:52.377Z,1.87
2023-12-11T22:11:54.428Z,1.67
2023-12-11T22:14:56.392Z,1.03
2023-12-11T22:17:58.902Z,1.23
2023-12-11T22:21:01.731Z,1.67
2023-12-11T22:24:05.008Z,1.67
2023-12-11T22:27:07.177Z,1.30
2023-12-11T22:30:09.370Z,1.30
2023-12-11T22:33:11.470Z,1.43
2023-12-11T22:36:22.465Z,1.33
2023-12-11T22:39:24.413Z,2.07
2023-12-11T22:42:26.967Z,2.00
2023-12-11T22:45:29.470Z,1.70
2023-12-11T22:48:32.020Z,1.40
2023-12-11T22:51:34.133Z,1.30
2023-12-11T22:54:36.613Z,1.30
2023-12-11T22:57:40.932Z,1.13
2023-12-11T23:00:43.057Z,1.33
2023-12-11T23:03:45.510Z,1.40
2023-12-11T23:06:48.015Z,1.47
2023-12-11T23:09:50.240Z,1.40
2023-12-11T23:12:52.417Z,0.80
2023-12-11T23:15:54.412Z,1.10
2023-12-11T23:19:00.452Z,0.93
2023-12-11T23:22:02.770Z,0.97
2023-12-11T23:25:05.401Z,1.10
2023-12-11T23:28:07.484Z,1.00
2023-12-11T23:31:10.266Z,0.80
2023-12-11T23:34:12.415Z,1.27
2023-12-11T23:37:15.193Z,1.10
2023-12-11T23:40:17.276Z,0.80
2023-12-11T23:43:19.410Z,1.40
2023-12-11T23:46:21.594Z,1.13
2023-12-11T23:49:23.870Z,1.10
2023-12-11T23:52:26.285Z,1.50
2023-12-11T23:55:28.600Z,1.27
2023-12-11T23:58:30.744Z,1.30
